createdAt,value
2022-12-01T00:01:10.959Z,3.50
2022-12-01T00:03:37.919Z,3.40
2022-12-01T00:06:11.487Z,3.30
2022-12-01T00:08:38.472Z,3.30
2022-12-01T00:11:12.103Z,3.50
2022-12-01T00:13:39.023Z,3.50
2022-12-01T00:16:13.587Z,3.40
2022-12-01T00:18:40.563Z,3.40
2022-12-01T00:21:13.777Z,3.30
2022-12-01T00:23:43.655Z,3.30
2022-12-01T00:26:10.679Z,3.30
2022-12-01T00:28:37.473Z,3.30
2022-12-01T00:31:11.104Z,3.40
2022-12-01T00:33:38.786Z,3.50
2022-12-01T00:36:06.166Z,3.50
2022-12-01T00:38:33.481Z,3.50
2022-12-01T00:41:00.224Z,3.50
2022-12-01T00:43:27.079Z,3.60
2022-12-01T00:45:53.917Z,3.70
2022-12-01T00:48:20.755Z,3.90
2022-12-01T00:50:47.775Z,3.90
2022-12-01T00:53:14.564Z,3.70
2022-12-01T00:55:41.347Z,3.80
2022-12-01T00:58:08.295Z,3.80
2022-12-01T01:00:38.651Z,3.60
2022-12-01T01:03:08.444Z,3.60
2022-12-01T01:05:40.016Z,3.70
2022-12-01T01:08:11.910Z,3.80
2022-12-01T01:10:39.801Z,3.90
2022-12-01T01:13:06.773Z,3.90
2022-12-01T01:15:33.821Z,3.80
2022-12-01T01:18:01.258Z,3.90
2022-12-01T01:20:28.458Z,3.80
2022-12-01T01:22:55.215Z,3.70
2022-12-01T01:25:22.805Z,3.70
2022-12-01T01:27:49.885Z,3.70
2022-12-01T01:30:17.221Z,3.60
2022-12-01T01:32:43.969Z,3.60
2022-12-01T01:35:10.810Z,3.50
2022-12-01T01:37:37.552Z,3.50
2022-12-01T01:40:04.882Z,3.50
2022-12-01T01:42:31.633Z,3.50
2022-12-01T01:44:59.215Z,3.40
2022-12-01T01:47:40.774Z,3.40
2022-12-01T01:50:10.955Z,3.40
2022-12-01T01:52:49.980Z,3.40
2022-12-01T01:55:17.115Z,3.50
2022-12-01T01:57:44.950Z,3.50
2022-12-01T02:00:15.984Z,3.50
2022-12-01T02:02:44.768Z,3.60
2022-12-01T02:05:16.657Z,3.60
2022-12-01T02:07:43.564Z,3.70
2022-12-01T02:10:13.127Z,3.60
2022-12-01T02:13:06.155Z,3.70
2022-12-01T02:16:24.110Z,3.70
2022-12-01T02:19:16.955Z,3.40
2022-12-01T02:22:01.820Z,3.40
2022-12-01T02:24:50.631Z,3.50
2022-12-01T02:27:29.768Z,3.50
2022-12-01T02:30:02.143Z,3.30
2022-12-01T02:32:47.114Z,3.30
2022-12-01T02:35:16.780Z,3.10
2022-12-01T02:38:03.320Z,3.20
2022-12-01T02:40:44.743Z,3.20
2022-12-01T02:43:33.207Z,3.30
2022-12-01T02:46:10.904Z,3.20
2022-12-01T02:48:40.994Z,3.30
2022-12-01T02:51:14.710Z,3.30
2022-12-01T02:53:41.705Z,3.40
2022-12-01T02:56:13.492Z,3.40
2022-12-01T02:58:40.377Z,3.30
2022-12-01T03:01:12.621Z,3.40
2022-12-01T03:03:58.302Z,3.40
2022-12-01T03:06:31.039Z,3.30
2022-12-01T03:09:06.267Z,3.30
2022-12-01T03:11:42.459Z,3.40
2022-12-01T03:14:14.529Z,3.50
2022-12-01T03:16:51.951Z,3.50
2022-12-01T03:19:32.067Z,3.50
2022-12-01T03:22:04.410Z,3.40
2022-12-01T03:24:33.095Z,3.50
2022-12-01T03:27:01.643Z,3.40
2022-12-01T03:29:33.718Z,3.40
2022-12-01T03:32:10.671Z,3.40
2022-12-01T03:34:56.673Z,3.50
2022-12-01T03:37:44.329Z,3.40
2022-12-01T03:40:18.328Z,3.40
2022-12-01T03:42:52.819Z,3.40
2022-12-01T03:45:33.206Z,3.30
2022-12-01T03:48:00.350Z,3.20
2022-12-01T03:50:36.712Z,3.20
2022-12-01T03:53:19.364Z,3.20
2022-12-01T03:55:53.351Z,3.20
2022-12-01T03:58:34.310Z,3.20
2022-12-01T04:01:05.070Z,3.10
2022-12-01T04:03:31.801Z,3.10
2022-12-01T04:05:58.985Z,3.20
2022-12-01T04:08:25.999Z,3.10
2022-12-01T04:10:52.812Z,3.10
2022-12-01T04:13:23.279Z,3.10
2022-12-01T04:15:51.321Z,3.20
2022-12-01T04:18:18.926Z,3.30
2022-12-01T04:20:50.240Z,3.30
2022-12-01T04:23:35.665Z,3.20
2022-12-01T04:26:04.671Z,3.20
2022-12-01T04:28:31.565Z,3.20
2022-12-01T04:30:58.360Z,3.30
2022-12-01T04:33:25.215Z,3.20
2022-12-01T04:36:01.338Z,3.20
2022-12-01T04:38:30.942Z,3.20
2022-12-01T04:40:58.029Z,3.20
2022-12-01T04:43:24.866Z,3.20
2022-12-01T04:45:51.594Z,3.30
2022-12-01T04:48:18.309Z,3.30
2022-12-01T04:50:45.015Z,3.30
2022-12-01T04:53:11.764Z,3.30
2022-12-01T04:55:39.325Z,3.30
2022-12-01T04:58:06.500Z,3.30
2022-12-01T05:00:33.945Z,3.20
2022-12-01T05:03:01.200Z,3.20
2022-12-01T05:05:28.119Z,3.30
2022-12-01T05:07:55.184Z,3.40
2022-12-01T05:10:22.449Z,3.30
2022-12-01T05:12:49.819Z,3.20
2022-12-01T05:15:16.782Z,3.20
2022-12-01T05:17:43.885Z,3.30
2022-12-01T05:20:37.941Z,3.30
2022-12-01T05:23:06.110Z,3.30
2022-12-01T05:25:33.773Z,3.20
2022-12-01T05:28:00.660Z,3.20
2022-12-01T05:30:28.954Z,3.10
2022-12-01T05:32:55.948Z,3.10
2022-12-01T05:35:22.751Z,3.10
2022-12-01T05:37:49.635Z,3.20
2022-12-01T05:40:16.522Z,3.30
2022-12-01T05:42:43.346Z,3.40
2022-12-01T05:45:10.505Z,3.40
2022-12-01T05:47:37.237Z,3.50
2022-12-01T05:50:05.945Z,3.50
2022-12-01T05:52:36.228Z,3.50
2022-12-01T05:55:04.462Z,3.60
2022-12-01T05:57:32.160Z,3.60
2022-12-01T05:59:59.262Z,3.60
2022-12-01T06:02:26.945Z,3.60
2022-12-01T06:04:53.973Z,3.70
2022-12-01T06:07:23.439Z,3.80
2022-12-01T06:09:50.533Z,3.70
2022-12-01T06:12:17.438Z,3.70
2022-12-01T06:14:44.286Z,3.60
2022-12-01T06:17:11.728Z,3.50
2022-12-01T06:19:39.287Z,3.50
2022-12-01T06:22:06.051Z,3.60
2022-12-01T06:24:32.774Z,3.60
2022-12-01T06:26:59.572Z,3.60
2022-12-01T06:29:26.388Z,3.60
2022-12-01T06:31:53.227Z,3.70
2022-12-01T06:34:19.990Z,3.60
2022-12-01T06:36:46.748Z,3.60
2022-12-01T06:39:15.669Z,3.70
2022-12-01T06:41:43.282Z,3.90
2022-12-01T06:44:11.066Z,3.90
2022-12-01T06:46:38.068Z,3.90
2022-12-01T06:49:05.101Z,3.80
2022-12-01T06:51:34.230Z,3.80
2022-12-01T06:54:05.448Z,3.80
2022-12-01T06:56:32.547Z,3.80
2022-12-01T06:58:59.867Z,3.80
2022-12-01T07:01:27.074Z,3.70
2022-12-01T07:03:54.844Z,3.70
2022-12-01T07:06:21.672Z,3.80
2022-12-01T07:08:48.471Z,3.80
2022-12-01T07:11:16.451Z,3.70
2022-12-01T07:13:49.486Z,3.60
2022-12-01T07:16:16.325Z,3.60
2022-12-01T07:18:45.062Z,3.50
2022-12-01T07:21:13.623Z,3.40
2022-12-01T07:23:40.822Z,3.40
2022-12-01T07:26:13.490Z,3.50
2022-12-01T07:28:40.244Z,3.40
2022-12-01T07:31:08.283Z,3.40
2022-12-01T07:33:36.218Z,3.50
2022-12-01T07:36:03.992Z,3.50
2022-12-01T07:38:32.791Z,3.70
2022-12-01T07:41:11.436Z,3.60
2022-12-01T07:43:39.336Z,3.50
2022-12-01T07:46:17.179Z,3.50
2022-12-01T07:48:47.623Z,3.50
2022-12-01T07:51:18.655Z,3.50
2022-12-01T07:53:46.937Z,3.50
2022-12-01T07:56:14.294Z,3.50
2022-12-01T07:58:41.732Z,3.50
2022-12-01T08:01:17.367Z,3.70
2022-12-01T08:03:44.477Z,3.70
2022-12-01T08:06:12.037Z,3.60
2022-12-01T08:08:40.743Z,3.60
2022-12-01T08:11:11.559Z,3.60
2022-12-01T08:13:39.507Z,3.70
2022-12-01T08:16:08.059Z,3.80
2022-12-01T08:18:35.964Z,3.80
2022-12-01T08:21:03.922Z,3.80
2022-12-01T08:23:30.757Z,3.80
2022-12-01T08:26:04.570Z,3.80
2022-12-01T08:28:31.362Z,3.80
2022-12-01T08:30:58.440Z,3.80
2022-12-01T08:33:25.256Z,3.60
2022-12-01T08:35:52.102Z,3.60
2022-12-01T08:38:18.839Z,3.60
2022-12-01T08:40:45.555Z,3.50
2022-12-01T08:43:28.348Z,3.60
2022-12-01T08:46:00.427Z,3.70
2022-12-01T08:48:30.041Z,3.70
2022-12-01T08:51:07.053Z,3.70
2022-12-01T08:53:35.361Z,3.70
2022-12-01T08:56:05.170Z,3.80
2022-12-01T08:58:32.061Z,3.80
2022-12-01T09:01:10.451Z,3.80
2022-12-01T09:03:38.597Z,3.80
2022-12-01T09:06:09.818Z,4.00
2022-12-01T09:08:37.322Z,4.00
2022-12-01T09:11:11.392Z,4.10
2022-12-01T09:13:39.666Z,4.10
2022-12-01T09:16:10.592Z,4.10
2022-12-01T09:18:37.654Z,4.00
2022-12-01T09:21:19.833Z,4.00
2022-12-01T09:23:47.272Z,4.00
2022-12-01T09:26:18.470Z,4.10
2022-12-01T09:28:50.463Z,4.30
2022-12-01T09:31:18.474Z,4.30
2022-12-01T09:33:45.521Z,4.40
2022-12-01T09:36:13.145Z,4.40
2022-12-01T09:38:40.361Z,4.40
2022-12-01T09:41:31.757Z,4.40
2022-12-01T09:44:14.141Z,4.50
2022-12-01T09:47:06.463Z,4.50
2022-12-01T09:49:43.712Z,4.50
2022-12-01T09:52:13.297Z,4.40
2022-12-01T09:54:41.050Z,4.40
2022-12-01T09:57:32.097Z,4.40
2022-12-01T10:00:02.361Z,4.50
2022-12-01T10:02:47.802Z,4.50
2022-12-01T10:05:25.129Z,4.40
2022-12-01T10:07:57.511Z,4.30
2022-12-01T10:10:33.042Z,4.40
2022-12-01T10:13:00.545Z,4.20
2022-12-01T10:15:54.583Z,4.20
2022-12-01T10:18:39.413Z,4.20
2022-12-01T10:21:20.770Z,4.30
2022-12-01T10:24:05.822Z,4.40
2022-12-01T10:26:52.873Z,4.50
2022-12-01T10:29:25.621Z,4.60
2022-12-01T10:31:57.909Z,4.70
2022-12-01T10:34:30.189Z,4.60
2022-12-01T10:36:57.686Z,4.60
2022-12-01T10:39:41.062Z,4.70
2022-12-01T10:42:17.215Z,4.80
2022-12-01T10:44:45.334Z,4.80
2022-12-01T10:47:25.536Z,4.70
2022-12-01T10:49:52.973Z,4.80
2022-12-01T10:52:55.612Z,4.80
2022-12-01T10:55:30.759Z,4.80
2022-12-01T10:58:02.427Z,4.80
2022-12-01T11:00:59.745Z,4.90
2022-12-01T11:03:28.644Z,4.90
2022-12-01T11:05:58.807Z,4.80
2022-12-01T11:08:38.987Z,4.60
2022-12-01T11:11:06.243Z,4.70
2022-12-01T11:13:36.696Z,4.60
2022-12-01T11:16:06.304Z,4.50
2022-12-01T11:18:38.742Z,4.40
2022-12-01T11:21:27.871Z,4.50
2022-12-01T11:23:56.114Z,4.30
2022-12-01T11:26:27.980Z,4.30
2022-12-01T11:28:56.077Z,4.30
2022-12-01T11:31:36.725Z,4.30
2022-12-01T11:34:04.151Z,4.30
2022-12-01T11:36:46.186Z,4.20
2022-12-01T11:39:43.951Z,4.30
2022-12-01T11:42:13.897Z,4.30
2022-12-01T11:44:52.397Z,4.50
2022-12-01T11:47:23.689Z,4.50
2022-12-01T11:50:03.024Z,4.40
2022-12-01T11:52:36.611Z,4.40
2022-12-01T11:55:20.369Z,4.60
2022-12-01T11:57:50.542Z,4.60
2022-12-01T12:00:21.502Z,4.60
2022-12-01T12:03:07.152Z,4.60
2022-12-01T12:05:49.220Z,4.50
2022-12-01T12:08:39.374Z,4.50
2022-12-01T12:11:19.915Z,4.50
2022-12-01T12:14:08.224Z,4.50
2022-12-01T12:17:03.683Z,4.50
2022-12-01T12:20:08.659Z,4.40
2022-12-01T12:23:05.991Z,4.50
2022-12-01T12:25:54.567Z,4.50
2022-12-01T12:28:32.949Z,4.60
2022-12-01T12:31:17.544Z,4.50
2022-12-01T12:33:56.238Z,4.60
2022-12-01T12:36:52.134Z,4.70
2022-12-01T12:39:22.182Z,4.70
2022-12-01T12:41:53.038Z,4.60
2022-12-01T12:44:51.515Z,4.70
2022-12-01T12:47:47.557Z,4.80
2022-12-01T12:50:41.203Z,4.90
2022-12-01T12:53:38.512Z,4.90
2022-12-01T12:56:10.133Z,4.90
2022-12-01T12:59:01.394Z,4.80
2022-12-01T13:02:03.074Z,4.90
2022-12-01T13:04:50.428Z,4.80
2022-12-01T13:07:34.498Z,4.80
2022-12-01T13:10:19.482Z,4.90
2022-12-01T13:12:56.177Z,5.10
2022-12-01T13:15:23.064Z,5.20
2022-12-01T13:18:03.265Z,5.20
2022-12-01T13:20:32.105Z,5.30
2022-12-01T13:23:00.963Z,5.40
2022-12-01T13:25:38.264Z,5.30
2022-12-01T13:28:14.348Z,5.30
2022-12-01T13:30:41.335Z,5.20
2022-12-01T13:33:14.493Z,5.10
2022-12-01T13:35:42.416Z,5.20
2022-12-01T13:38:21.704Z,5.10
2022-12-01T13:40:49.114Z,5.00
2022-12-01T13:43:23.233Z,4.90
2022-12-01T13:45:51.505Z,4.90
2022-12-01T13:48:39.200Z,4.90
2022-12-01T13:51:07.167Z,4.80
2022-12-01T13:53:36.993Z,4.80
2022-12-01T13:56:06.590Z,4.90
2022-12-01T13:58:33.293Z,5.00
2022-12-01T14:01:26.287Z,5.10
2022-12-01T14:04:02.708Z,5.20
2022-12-01T14:06:59.901Z,5.30
2022-12-01T14:09:37.244Z,5.20
2022-12-01T14:12:19.804Z,5.10
2022-12-01T14:14:55.987Z,4.90
2022-12-01T14:17:36.477Z,5.00
2022-12-01T14:20:14.700Z,4.90
2022-12-01T14:22:44.774Z,4.90
2022-12-01T14:25:20.614Z,4.90
2022-12-01T14:27:50.223Z,4.90
2022-12-01T14:30:42.075Z,4.90
2022-12-01T14:33:39.984Z,4.90
2022-12-01T14:36:21.945Z,4.90
2022-12-01T14:38:59.989Z,5.00
2022-12-01T14:41:38.765Z,5.10
2022-12-01T14:44:36.036Z,5.00
2022-12-01T14:47:12.543Z,5.00
2022-12-01T14:49:52.838Z,4.90
2022-12-01T14:52:28.643Z,5.00
2022-12-01T14:54:58.752Z,5.20
2022-12-01T14:57:32.162Z,5.20
2022-12-01T15:00:23.066Z,5.30
2022-12-01T15:03:02.828Z,5.30
2022-12-01T15:05:31.691Z,5.10
2022-12-01T15:08:40.812Z,5.20
2022-12-01T15:11:10.855Z,5.20
2022-12-01T15:13:53.656Z,5.10
2022-12-01T15:16:23.569Z,5.00
2022-12-01T15:18:50.450Z,5.10
2022-12-01T15:21:20.623Z,5.10
2022-12-01T15:24:00.713Z,5.10
2022-12-01T15:26:45.582Z,5.20
2022-12-01T15:29:24.280Z,5.30
2022-12-01T15:31:57.993Z,5.30
2022-12-01T15:34:31.549Z,5.10
2022-12-01T15:36:59.571Z,5.00
2022-12-01T15:39:34.821Z,4.90
2022-12-01T15:42:03.098Z,4.90
2022-12-01T15:44:35.736Z,5.00
2022-12-01T15:47:37.834Z,5.10
2022-12-01T15:50:06.470Z,5.00
2022-12-01T15:52:42.946Z,4.90
2022-12-01T15:55:25.784Z,4.90
2022-12-01T15:57:52.799Z,4.80
2022-12-01T16:00:21.392Z,5.00
2022-12-01T16:02:57.390Z,4.90
2022-12-01T16:05:30.821Z,4.70
2022-12-01T16:08:14.043Z,4.70
2022-12-01T16:10:41.166Z,4.60
2022-12-01T16:13:38.715Z,4.70
2022-12-01T16:16:23.159Z,4.80
2022-12-01T16:18:59.192Z,4.90
2022-12-01T16:21:27.123Z,4.90
2022-12-01T16:24:05.746Z,4.80
2022-12-01T16:26:33.850Z,4.90
2022-12-01T16:29:00.745Z,4.90
2022-12-01T16:31:27.772Z,4.90
2022-12-01T16:34:09.820Z,4.90
2022-12-01T16:36:49.715Z,4.80
2022-12-01T16:39:16.907Z,5.00
2022-12-01T16:41:44.879Z,5.00
2022-12-01T16:44:28.246Z,4.90
2022-12-01T16:46:55.723Z,4.90
2022-12-01T16:49:22.652Z,4.90
2022-12-01T16:51:55.889Z,4.90
2022-12-01T16:54:23.865Z,4.90
2022-12-01T16:56:51.284Z,4.90
2022-12-01T16:59:17.985Z,4.90
2022-12-01T17:01:44.756Z,4.70
2022-12-01T17:04:11.548Z,4.70
2022-12-01T17:06:38.524Z,4.70
2022-12-01T17:09:05.979Z,4.80
2022-12-01T17:11:33.212Z,4.70
2022-12-01T17:14:00.088Z,4.70
2022-12-01T17:16:27.092Z,4.60
2022-12-01T17:18:53.835Z,4.60
2022-12-01T17:21:20.533Z,4.60
2022-12-01T17:23:47.320Z,4.60
2022-12-01T17:26:16.735Z,4.70
2022-12-01T17:28:43.591Z,4.80
2022-12-01T17:31:11.050Z,4.80
2022-12-01T17:33:43.971Z,4.80
2022-12-01T17:36:12.512Z,4.70
2022-12-01T17:38:41.762Z,4.70
2022-12-01T17:41:15.838Z,4.70
2022-12-01T17:43:42.793Z,4.70
2022-12-01T17:46:11.644Z,4.80
2022-12-01T17:48:40.666Z,4.80
2022-12-01T17:51:08.991Z,4.70
2022-12-01T17:53:36.627Z,4.70
2022-12-01T17:56:10.190Z,4.70
2022-12-01T17:58:37.752Z,4.70
2022-12-01T18:01:05.712Z,4.70
2022-12-01T18:03:32.573Z,4.70
2022-12-01T18:06:01.865Z,4.70
2022-12-01T18:08:30.441Z,4.80
2022-12-01T18:11:12.499Z,4.80
2022-12-01T18:13:40.901Z,4.90
2022-12-01T18:16:17.443Z,4.90
2022-12-01T18:18:44.421Z,5.00
2022-12-01T18:21:14.346Z,5.00
2022-12-01T18:23:43.260Z,4.90
2022-12-01T18:26:15.767Z,5.00
2022-12-01T18:28:43.275Z,5.00
2022-12-01T18:31:12.404Z,5.00
2022-12-01T18:33:41.082Z,5.00
2022-12-01T18:36:26.398Z,5.10
2022-12-01T18:38:54.506Z,5.10
2022-12-01T18:41:21.559Z,5.00
2022-12-01T18:43:48.434Z,4.90
2022-12-01T18:46:17.402Z,4.90
2022-12-01T18:48:49.957Z,5.00
2022-12-01T18:51:17.596Z,5.00
2022-12-01T18:53:45.566Z,5.00
2022-12-01T18:56:15.046Z,5.00
2022-12-01T18:58:42.215Z,5.00
2022-12-01T19:01:31.293Z,5.00
2022-12-01T19:03:59.713Z,4.90
2022-12-01T19:06:27.934Z,4.90
2022-12-01T19:08:55.588Z,5.00
2022-12-01T19:11:22.470Z,5.00
2022-12-01T19:13:49.897Z,5.00
2022-12-01T19:16:19.167Z,5.00
2022-12-01T19:18:46.272Z,4.80
2022-12-01T19:21:16.094Z,4.80
2022-12-01T19:23:46.419Z,4.90
2022-12-01T19:26:19.708Z,5.00
2022-12-01T19:28:47.927Z,5.00
2022-12-01T19:31:19.698Z,5.00
2022-12-01T19:33:47.222Z,4.90
2022-12-01T19:36:18.577Z,4.80
2022-12-01T19:38:45.783Z,4.80
2022-12-01T19:41:13.856Z,4.70
2022-12-01T19:43:42.257Z,4.70
2022-12-01T19:46:12.039Z,4.70
2022-12-01T19:48:39.162Z,4.50
2022-12-01T19:51:06.137Z,4.50
2022-12-01T19:53:34.014Z,4.60
2022-12-01T19:56:03.205Z,4.70
2022-12-01T19:58:33.255Z,4.70
2022-12-01T20:01:11.966Z,4.70
2022-12-01T20:03:40.666Z,4.60
2022-12-01T20:06:10.047Z,4.50
2022-12-01T20:08:36.900Z,4.50
2022-12-01T20:11:04.854Z,4.50
2022-12-01T20:13:36.503Z,4.40
2022-12-01T20:16:15.891Z,4.40
2022-12-01T20:18:43.270Z,4.30
2022-12-01T20:21:17.072Z,4.20
2022-12-01T20:23:45.760Z,4.20
2022-12-01T20:26:13.628Z,4.20
2022-12-01T20:28:41.022Z,4.20
2022-12-01T20:31:26.387Z,4.10
2022-12-01T20:33:55.520Z,4.10
2022-12-01T20:36:22.366Z,4.20
2022-12-01T20:38:49.345Z,4.30
2022-12-01T20:41:17.188Z,4.40
2022-12-01T20:43:44.055Z,4.40
2022-12-01T20:46:11.930Z,4.40
2022-12-01T20:48:38.919Z,4.50
2022-12-01T20:51:07.953Z,4.50
2022-12-01T20:53:35.372Z,4.60
2022-12-01T20:56:04.482Z,4.60
2022-12-01T20:58:35.987Z,4.60
2022-12-01T21:01:13.452Z,4.50
2022-12-01T21:03:42.315Z,4.50
2022-12-01T21:06:10.473Z,4.30
2022-12-01T21:08:38.567Z,4.40
2022-12-01T21:11:08.323Z,4.40
2022-12-01T21:13:44.257Z,4.30
2022-12-01T21:16:15.730Z,4.30
2022-12-01T21:18:55.829Z,4.20
2022-12-01T21:21:28.199Z,4.30
2022-12-01T21:24:19.882Z,4.40
2022-12-01T21:26:50.148Z,4.40
2022-12-01T21:29:28.476Z,4.40
2022-12-01T21:31:58.881Z,4.30
2022-12-01T21:34:28.496Z,4.30
2022-12-01T21:37:00.057Z,4.30
2022-12-01T21:39:26.830Z,4.20
2022-12-01T21:41:56.800Z,4.20
2022-12-01T21:44:32.881Z,4.30
2022-12-01T21:47:06.156Z,4.40
2022-12-01T21:49:39.000Z,4.30
2022-12-01T21:52:39.813Z,4.30
2022-12-01T21:55:15.519Z,4.30
2022-12-01T21:57:53.216Z,4.30
2022-12-01T22:00:36.854Z,4.20
2022-12-01T22:03:09.568Z,4.30
2022-12-01T22:05:42.271Z,4.30
2022-12-01T22:08:12.346Z,4.30
2022-12-01T22:10:58.993Z,4.30
2022-12-01T22:13:53.803Z,4.30
2022-12-01T22:16:20.841Z,4.30
2022-12-01T22:18:51.812Z,4.30
2022-12-01T22:21:36.695Z,4.30
2022-12-01T22:24:20.649Z,4.40
2022-12-01T22:26:53.419Z,4.40
2022-12-01T22:29:34.965Z,4.30
2022-12-01T22:32:14.027Z,4.30
2022-12-01T22:34:49.897Z,4.30
2022-12-01T22:37:22.417Z,4.40
2022-12-01T22:39:55.354Z,4.30
2022-12-01T22:42:34.009Z,4.30
2022-12-01T22:45:22.981Z,4.20
2022-12-01T22:47:49.974Z,4.20
2022-12-01T22:50:31.206Z,4.20
2022-12-01T22:53:06.300Z,4.30
2022-12-01T22:55:33.982Z,4.30
2022-12-01T22:58:01.139Z,4.40
2022-12-01T23:00:27.862Z,4.40
2022-12-01T23:02:56.329Z,4.30
2022-12-01T23:05:30.715Z,4.20
2022-12-01T23:07:57.732Z,4.20
2022-12-01T23:10:29.005Z,4.30
2022-12-01T23:12:59.424Z,4.30
2022-12-01T23:15:40.545Z,4.30
2022-12-01T23:18:24.847Z,4.20
2022-12-01T23:20:57.265Z,4.30
2022-12-01T23:23:29.962Z,4.40
2022-12-01T23:25:57.522Z,4.50
2022-12-01T23:28:24.814Z,4.60
2022-12-01T23:30:55.010Z,4.60
2022-12-01T23:33:24.012Z,4.60
2022-12-01T23:36:00.332Z,4.60
2022-12-01T23:38:37.438Z,4.50
2022-12-01T23:41:31.894Z,4.50
2022-12-01T23:44:03.632Z,4.50
2022-12-01T23:46:32.067Z,4.60
2022-12-01T23:49:01.257Z,4.60
2022-12-01T23:51:31.956Z,4.60
2022-12-01T23:54:01.479Z,4.60
2022-12-01T23:56:30.821Z,4.60
2022-12-01T23:59:00.668Z,4.70
